Time;durP1;ratioP1;P1;durP2;ratioP2;P2;SDS_P1;SDS_P2;PMS_P1;PMS_P2;Temp;Humidity;BMP_temperature;BMP_pressure;BME280_temperature;BME280_humidity;BME280_pressure;Samples;Min_cycle;Max_cycle;Signal;HPM_P1;HPM_P2
2021/03/10 00:03:17;;;;;;;4.93;3.27;;;17.30;29.80;;;;;;8396919;28;20070;-57
2021/03/10 00:07:18;;;;;;;4.30;3.23;;;17.30;29.80;;;;;;8392766;28;20044;-57
2021/03/10 00:11:18;;;;;;;4.77;3.27;;;17.30;29.80;;;;;;8390778;28;20040;-56
2021/03/10 00:15:19;;;;;;;3.93;3.00;;;17.20;29.80;;;;;;8392188;28;20055;-56
2021/03/10 00:19:20;;;;;;;3.30;2.93;;;17.30;29.90;;;;;;8396390;28;20044;-57
2021/03/10 00:23:21;;;;;;;3.30;2.83;;;17.30;29.90;;;;;;8390064;28;20043;-55
2021/03/10 00:27:25;;;;;;;3.83;2.80;;;17.20;29.90;;;;;;8391382;28;20035;-56
2021/03/10 00:31:25;;;;;;;3.83;2.97;;;17.30;29.90;;;;;;8392246;28;20059;-56
2021/03/10 00:35:26;;;;;;;5.90;3.23;;;17.30;29.90;;;;;;8392254;28;20083;-56
2021/03/10 00:39:26;;;;;;;3.73;2.93;;;17.30;29.90;;;;;;8429635;28;20028;-56
2021/03/10 00:43:27;;;;;;;4.37;3.13;;;17.20;29.80;;;;;;8398038;28;20066;-56
2021/03/10 00:47:27;;;;;;;4.10;3.10;;;17.20;29.90;;;;;;8405839;28;20043;-56
2021/03/10 00:51:28;;;;;;;3.43;2.70;;;17.20;29.80;;;;;;8417701;28;20082;-56
2021/03/10 00:55:28;;;;;;;3.47;3.10;;;17.30;29.90;;;;;;8395675;28;20043;-56
2021/03/10 00:59:29;;;;;;;3.93;3.10;;;17.20;29.90;;;;;;8389139;28;20094;-56
2021/03/10 01:03:30;;;;;;;3.63;2.70;;;17.20;29.80;;;;;;8391192;28;20033;-56
2021/03/10 01:07:31;;;;;;;3.87;2.97;;;17.20;29.90;;;;;;8390987;28;20028;-56
2021/03/10 01:11:31;;;;;;;3.70;2.85;;;17.20;29.90;;;;;;8390359;28;20512;-56
2021/03/10 01:15:32;;;;;;;4.53;2.87;;;17.20;29.90;;;;;;8394438;28;20474;-56
2021/03/10 01:19:33;;;;;;;4.27;3.17;;;17.20;29.90;;;;;;8390510;28;20125;-56
2021/03/10 01:23:33;;;;;;;4.80;3.33;;;17.20;29.90;;;;;;8402176;28;20550;-56
2021/03/10 01:27:34;;;;;;;4.73;3.40;;;17.20;29.80;;;;;;8419958;28;20051;-56
2021/03/10 01:31:35;;;;;;;4.17;3.00;;;17.20;29.80;;;;;;8395211;28;20462;-56
2021/03/10 01:35:35;;;;;;;3.73;3.20;;;17.20;29.90;;;;;;8389017;28;20032;-56
2021/03/10 01:39:36;;;;;;;4.77;3.33;;;17.20;29.90;;;;;;8394748;28;20059;-57
2021/03/10 01:43:38;;;;;;;4.07;3.27;;;17.20;29.90;;;;;;8397039;28;20432;-57
2021/03/10 01:47:39;;;;;;;;;;;17.20;29.90;;;;;;8400269;28;20036;-55
2021/03/10 01:51:40;;;;;;;4.20;2.93;;;17.20;29.80;;;;;;8427652;28;19927;-57
2021/03/10 01:55:40;;;;;;;4.10;3.13;;;17.20;29.90;;;;;;8406432;28;20396;-56
2021/03/10 01:59:41;;;;;;;4.63;2.87;;;17.20;29.90;;;;;;8397240;28;20102;-56
2021/03/10 02:03:42;;;;;;;4.40;3.00;;;17.20;29.90;;;;;;8396121;28;20036;-57
2021/03/10 02:08:02;;;;;;;3.30;3.00;;;17.20;29.90;;;;;;8399300;28;20083;-56
2021/03/10 02:12:28;;;;;;;4.55;2.92;;;17.20;29.90;;;;;;8396271;28;20078;-56
2021/03/10 02:16:36;;;;;;;4.72;2.78;;;17.20;29.90;;;;;;8394412;28;20047;-56
2021/03/10 02:20:46;;;;;;;4.38;2.70;;;17.20;29.90;;;;;;8394309;28;20036;-57
2021/03/10 02:25:12;;;;;;;4.45;3.10;;;17.20;29.90;;;;;;8395855;28;20033;-56
2021/03/10 02:29:15;;;;;;;3.70;2.65;;;17.20;29.90;;;;;;8398448;28;20033;-56
2021/03/10 02:33:27;;;;;;;3.45;2.65;;;17.20;29.90;;;;;;8395535;28;20080;-57
2021/03/10 02:37:29;;;;;;;4.18;2.72;;;17.20;29.90;;;;;;8395180;28;20436;-57
2021/03/10 02:41:32;;;;;;;3.38;2.42;;;17.20;30.30;;;;;;8393441;28;20032;-56
2021/03/10 02:45:34;;;;;;;8.80;2.55;;;17.20;29.90;;;;;;8395050;28;20051;-57
2021/03/10 02:49:36;;;;;;;4.32;3.60;;;17.20;29.80;;;;;;8398938;28;20392;-57
2021/03/10 02:53:39;;;;;;;3.58;2.70;;;17.20;29.90;;;;;;8393633;28;20044;-57
2021/03/10 02:57:40;;;;;;;4.85;3.10;;;17.20;29.90;;;;;;8394935;28;20566;-57
2021/03/10 03:01:41;;;;;;;3.85;2.97;;;17.20;29.90;;;;;;8392717;28;20063;-57
2021/03/10 03:05:42;;;;;;;4.13;2.83;;;17.20;29.90;;;;;;8399273;28;20048;-57
2021/03/10 03:09:42;;;;;;;4.33;2.97;;;17.20;29.90;;;;;;8394411;28;20489;-57
2021/03/10 03:13:43;;;;;;;3.70;2.43;;;17.20;29.90;;;;;;8393180;28;20052;-57
2021/03/10 03:17:45;;;;;;;4.50;3.40;;;17.20;29.90;;;;;;8393559;28;20036;-57
2021/03/10 03:21:47;;;;;;;3.58;2.80;;;17.20;29.90;;;;;;8393873;28;20550;-57
2021/03/10 03:25:49;;;;;;;3.10;2.60;;;17.20;29.90;;;;;;8396541;28;20040;-57
2021/03/10 03:29:58;;;;;;;5.32;3.10;;;17.20;29.90;;;;;;8393631;28;20502;-57
2021/03/10 03:33:58;;;;;;;3.90;2.95;;;17.20;29.90;;;;;;8411019;28;20108;-57
2021/03/10 03:37:59;;;;;;;3.83;3.00;;;17.20;29.90;;;;;;8417437;28;20531;-57
2021/03/10 03:42:00;;;;;;;3.72;2.80;;;17.20;29.90;;;;;;8397063;28;20035;-57
2021/03/10 03:46:01;;;;;;;4.10;3.00;;;17.10;29.90;;;;;;8392884;28;20073;-57
2021/03/10 03:50:04;;;;;;;3.45;2.78;;;17.10;29.90;;;;;;8391186;28;20037;-57
2021/03/10 03:54:05;;;;;;;4.43;3.00;;;17.10;29.90;;;;;;8392866;28;20040;-57
2021/03/10 03:58:06;;;;;;;3.63;2.80;;;17.10;29.80;;;;;;8392533;28;20017;-56
2021/03/10 04:02:06;;;;;;;3.67;2.67;;;17.10;29.90;;;;;;8394682;28;20051;-57
2021/03/10 04:06:07;;;;;;;3.73;2.73;;;17.10;29.90;;;;;;8392401;28;20127;-57
2021/03/10 04:10:08;;;;;;;3.90;3.17;;;17.10;29.90;;;;;;8392297;28;20614;-57
2021/03/10 04:14:08;;;;;;;3.60;2.83;;;17.10;29.90;;;;;;8390397;28;20406;-57
2021/03/10 04:18:09;;;;;;;4.10;2.97;;;17.10;29.90;;;;;;8396813;28;20040;-57
2021/03/10 04:22:09;;;;;;;3.30;2.67;;;17.10;29.90;;;;;;8391928;28;20548;-57
2021/03/10 04:26:10;;;;;;;3.53;2.40;;;17.10;29.90;;;;;;8390489;28;20029;-57
2021/03/10 04:30:12;;;;;;;3.93;3.03;;;17.10;29.90;;;;;;8399922;28;20039;-57
2021/03/10 04:34:13;;;;;;;3.17;2.63;;;17.20;29.90;;;;;;8429642;28;20511;-57
2021/03/10 04:38:13;;;;;;;4.67;2.87;;;17.10;29.90;;;;;;8390408;28;20028;-57
2021/03/10 04:42:14;;;;;;;3.50;2.40;;;17.20;29.90;;;;;;8391319;28;20382;-57
2021/03/10 04:46:15;;;;;;;4.20;2.83;;;17.20;29.90;;;;;;8391454;28;20032;-57
2021/03/10 04:50:17;;;;;;;3.92;2.72;;;17.20;29.90;;;;;;8389161;28;20048;-58
2021/03/10 04:54:17;;;;;;;2.90;2.42;;;17.20;29.90;;;;;;8395738;28;20036;-58
2021/03/10 04:58:18;;;;;;;3.93;2.83;;;17.20;29.90;;;;;;8416922;28;20044;-57
2021/03/10 05:02:19;;;;;;;4.07;2.67;;;17.20;30.00;;;;;;8405810;28;20454;-58
2021/03/10 05:06:19;;;;;;;5.23;3.27;;;17.20;30.00;;;;;;8391017;28;20064;-56
2021/03/10 05:10:20;;;;;;;3.60;2.73;;;17.10;29.90;;;;;;8395581;28;20059;-57
2021/03/10 05:14:20;;;;;;;4.60;3.17;;;17.10;30.00;;;;;;8388941;28;20033;-57
2021/03/10 05:18:21;;;;;;;4.13;2.73;;;17.10;30.00;;;;;;8391700;28;20033;-58
2021/03/10 05:22:22;;;;;;;3.70;2.90;;;17.20;30.00;;;;;;8391128;28;20086;-57
2021/03/10 05:26:22;;;;;;;3.95;2.80;;;17.10;30.00;;;;;;8390035;28;20029;-58
2021/03/10 05:30:23;;;;;;;3.80;2.93;;;17.10;30.00;;;;;;8394272;28;20498;-57
2021/03/10 05:34:23;;;;;;;3.93;3.00;;;17.10;30.00;;;;;;8390619;28;20409;-58
2021/03/10 05:38:24;;;;;;;3.87;2.70;;;17.00;30.00;;;;;;8389087;28;20041;-57
2021/03/10 05:42:25;;;;;;;3.00;2.33;;;17.00;29.90;;;;;;8390274;28;20029;-57
2021/03/10 05:46:25;;;;;;;5.57;3.00;;;17.00;30.00;;;;;;8394809;28;20607;-57
2021/03/10 05:50:26;;;;;;;4.70;2.83;;;17.00;30.40;;;;;;8388382;28;20052;-57
2021/03/10 05:54:29;;;;;;;3.93;3.00;;;17.00;29.90;;;;;;8407065;28;20032;-57
2021/03/10 05:58:29;;;;;;;3.53;2.80;;;16.90;29.90;;;;;;8415198;28;20047;-57
2021/03/10 06:02:30;;;;;;;2.87;2.50;;;17.00;30.00;;;;;;8392829;28;20036;-57
2021/03/10 06:06:38;;;;;;;3.90;3.20;;;16.90;30.00;;;;;;8389770;28;20116;-57
2021/03/10 06:10:41;;;;;;;4.10;2.72;;;16.90;30.00;;;;;;8388420;28;20123;-54
2021/03/10 06:14:41;;;;;;;3.45;2.55;;;16.90;30.00;;;;;;8389889;28;20127;-57
2021/03/10 06:18:42;;;;;;;3.70;2.97;;;16.90;30.00;;;;;;8389976;28;20113;-57
2021/03/10 06:22:42;;;;;;;5.37;3.20;;;16.80;30.00;;;;;;8392415;28;20146;-57
2021/03/10 06:26:53;;;;;;;5.53;3.10;;;16.90;30.00;;;;;;8394862;28;20040;-57
2021/03/10 06:30:54;;;;;;;3.42;2.72;;;16.90;30.00;;;;;;8395422;28;20056;-57
2021/03/10 06:34:55;;;;;;;3.80;3.00;;;16.90;29.90;;;;;;8393663;28;20549;-57
2021/03/10 06:38:56;;;;;;;4.07;2.77;;;17.00;29.90;;;;;;8399971;28;20048;-57
2021/03/10 06:42:56;;;;;;;4.05;2.80;;;17.00;29.80;;;;;;8395229;28;20397;-57
2021/03/10 06:46:58;;;;;;;3.20;2.47;;;17.00;29.80;;;;;;8393432;28;20028;-57
2021/03/10 06:50:58;;;;;;;;;;;17.00;29.70;;;;;;8395220;28;20098;-57
2021/03/10 06:55:00;;;;;;;4.32;2.88;;;17.00;29.80;;;;;;8395119;28;19909;-57
2021/03/10 06:59:01;;;;;;;4.40;2.97;;;16.90;29.80;;;;;;8397534;28;20032;-57
2021/03/10 07:03:02;;;;;;;5.33;3.33;;;16.90;29.90;;;;;;8395048;28;20094;-57
2021/03/10 07:07:04;;;;;;;4.50;3.10;;;16.90;29.90;;;;;;8395147;28;20033;-58
2021/03/10 07:11:06;;;;;;;3.85;2.80;;;16.90;29.90;;;;;;8392972;28;20045;-57
2021/03/10 07:15:07;;;;;;;5.20;3.75;;;16.80;29.90;;;;;;8398464;28;20028;-57
2021/03/10 07:19:12;;;;;;;4.40;2.90;;;16.90;29.90;;;;;;8394040;28;20385;-57
2021/03/10 07:23:17;;;;;;;4.90;3.30;;;16.90;29.90;;;;;;8392403;28;20036;-57
2021/03/10 07:27:20;;;;;;;4.13;3.13;;;16.90;29.90;;;;;;8393989;28;20071;-57
2021/03/10 07:31:22;;;;;;;4.68;3.60;;;16.90;29.90;;;;;;8393429;28;20044;-58
2021/03/10 07:35:24;;;;;;;3.80;3.13;;;17.00;29.90;;;;;;8396408;28;20090;-58
2021/03/10 07:39:26;;;;;;;;;;;17.00;29.90;;;;;;8418233;28;20052;-56
2021/03/10 07:43:47;;;;;;;4.10;3.25;;;17.00;29.80;;;;;;8411299;28;19912;-56
2021/03/10 07:47:50;;;;;;;4.07;3.10;;;17.00;29.80;;;;;;8391522;28;20389;-57
2021/03/10 07:52:02;;;;;;;3.85;2.97;;;17.10;29.80;;;;;;8397350;28;20498;-58
2021/03/10 07:56:03;;;;;;;4.07;3.05;;;17.10;29.80;;;;;;8394764;28;20473;-56
2021/03/10 08:00:08;;;;;;;5.13;3.38;;;17.10;29.90;;;;;;8392771;28;20436;-57
2021/03/10 08:04:18;;;;;;;3.78;3.10;;;17.00;29.80;;;;;;8392625;28;20523;-57
2021/03/10 08:08:19;;;;;;;4.28;3.38;;;17.10;29.90;;;;;;8390950;28;21086;-56
2021/03/10 08:12:38;;;;;;;6.03;3.63;;;17.10;29.90;;;;;;8397041;28;20190;-55
2021/03/10 08:16:46;;;;;;;4.70;3.45;;;17.10;29.90;;;;;;8391259;28;20039;-51
2021/03/10 08:20:47;;;;;;;4.55;3.10;;;17.10;29.90;;;;;;8391182;28;20040;-56
2021/03/10 08:24:48;;;;;;;4.28;3.50;;;17.10;29.90;;;;;;8391947;28;20031;-57
2021/03/10 08:28:48;;;;;;;5.53;3.60;;;17.10;29.90;;;;;;8389879;28;20033;-56
2021/03/10 08:32:49;;;;;;;4.60;3.00;;;17.10;29.90;;;;;;8396197;28;20068;-57
2021/03/10 08:36:50;;;;;;;4.13;3.00;;;17.10;29.90;;;;;;8391869;28;20033;-57
2021/03/10 08:40:51;;;;;;;3.90;3.23;;;17.10;29.90;;;;;;8390377;28;20029;-57
2021/03/10 08:44:53;;;;;;;4.50;3.20;;;17.10;29.90;;;;;;8391539;28;20390;-57
2021/03/10 08:48:53;;;;;;;4.18;2.63;;;17.10;29.90;;;;;;8395531;28;20544;-57
2021/03/10 08:52:54;;;;;;;3.70;2.90;;;17.10;29.90;;;;;;8389775;28;20052;-56
2021/03/10 08:56:54;;;;;;;6.33;3.40;;;17.10;29.90;;;;;;8391119;28;20047;-55
2021/03/10 09:00:55;;;;;;;4.10;3.07;;;17.00;29.90;;;;;;8391143;28;20028;-54
2021/03/10 09:04:56;;;;;;;3.37;2.70;;;17.10;30.00;;;;;;8390058;28;20036;-56
2021/03/10 09:08:57;;;;;;;3.47;3.17;;;17.10;30.00;;;;;;8395818;28;20504;-57
2021/03/10 09:12:58;;;;;;;3.80;3.07;;;17.10;30.00;;;;;;8390921;28;20079;-56
2021/03/10 09:16:59;;;;;;;5.27;3.43;;;17.10;30.00;;;;;;8389116;28;20492;-56
2021/03/10 09:21:00;;;;;;;4.78;3.20;;;17.10;30.00;;;;;;8390982;28;20078;-56
2021/03/10 09:25:13;;;;;;;4.43;3.53;;;17.10;30.00;;;;;;8395255;28;20040;-55
2021/03/10 09:29:13;;;;;;;7.55;3.58;;;17.10;30.00;;;;;;8388814;28;20038;-56
2021/03/10 09:33:25;;;;;;;6.23;3.50;;;17.10;30.00;;;;;;8410428;28;20040;-57
2021/03/10 09:37:28;;;;;;;3.85;3.00;;;17.10;30.00;;;;;;8411612;28;20047;-55
2021/03/10 09:41:30;;;;;;;4.80;3.47;;;17.10;30.00;;;;;;8388640;28;20409;-57
2021/03/10 09:45:32;;;;;;;4.22;3.05;;;17.10;30.00;;;;;;8394972;28;20025;-57
2021/03/10 09:49:44;;;;;;;5.50;3.53;;;17.10;30.00;;;;;;8390799;28;20063;-56
2021/03/10 09:53:50;;;;;;;4.45;3.35;;;17.10;30.00;;;;;;8405967;28;20072;-57
2021/03/10 09:58:04;;;;;;;4.75;3.05;;;17.10;30.00;;;;;;8422378;28;20043;-57
2021/03/10 10:02:04;;;;;;;5.72;3.35;;;17.10;30.00;;;;;;8427203;28;20119;-57
2021/03/10 10:06:07;;;;;;;3.73;3.07;;;17.10;30.00;;;;;;8400964;28;20094;-57
2021/03/10 10:10:08;;;;;;;4.07;2.97;;;17.10;30.00;;;;;;8396686;28;20075;-57
2021/03/10 10:14:08;;;;;;;4.47;3.22;;;17.10;30.00;;;;;;8394564;28;20076;-57
2021/03/10 10:18:09;;;;;;;3.90;3.30;;;17.10;30.00;;;;;;8395895;28;20082;-56
2021/03/10 10:22:09;;;;;;;4.60;3.20;;;17.10;30.00;;;;;;8400303;28;20083;-56
2021/03/10 10:26:10;;;;;;;5.77;3.23;;;17.20;30.10;;;;;;8421724;28;20036;-57
2021/03/10 10:30:14;;;;;;;4.07;3.10;;;17.20;30.00;;;;;;8410492;28;20493;-58
2021/03/10 10:34:15;;;;;;;5.05;3.78;;;17.20;30.10;;;;;;8395205;28;20545;-56
2021/03/10 10:38:15;;;;;;;5.30;3.43;;;17.20;30.00;;;;;;8398150;28;20031;-57
2021/03/10 10:42:17;;;;;;;3.93;3.10;;;17.20;30.00;;;;;;8396306;28;20044;-56
2021/03/10 10:46:17;;;;;;;3.92;2.80;;;17.20;30.00;;;;;;8395169;28;20032;-56
2021/03/10 10:50:18;;;;;;;4.83;2.57;;;17.30;30.00;;;;;;8393534;28;20516;-57
2021/03/10 10:54:19;;;;;;;3.53;3.03;;;17.30;30.00;;;;;;8395312;28;20052;-57
2021/03/10 10:58:19;;;;;;;3.97;2.90;;;17.30;30.00;;;;;;8399463;28;20039;-56
2021/03/10 11:02:20;;;;;;;4.33;3.83;;;17.40;30.50;;;;;;8418437;28;20055;-57
2021/03/10 11:06:21;;;;;;;4.30;2.90;;;17.40;30.00;;;;;;8411665;28;20489;-57
2021/03/10 11:10:22;;;;;;;3.60;2.87;;;17.40;30.00;;;;;;8394460;28;20037;-57
2021/03/10 11:14:22;;;;;;;4.47;3.00;;;17.50;29.90;;;;;;8397214;28;20045;-57
2021/03/10 11:18:23;;;;;;;4.43;2.93;;;17.50;30.30;;;;;;8423497;28;20044;-57
2021/03/10 11:22:24;;;;;;;5.10;3.00;;;17.50;29.90;;;;;;8407224;28;20367;-57
2021/03/10 11:26:24;;;;;;;4.97;3.37;;;17.50;29.90;;;;;;8392424;28;20025;-57
2021/03/10 11:30:25;;;;;;;3.93;2.97;;;17.50;29.90;;;;;;8396084;28;20085;-57
2021/03/10 11:34:25;;;;;;;3.80;2.93;;;17.50;29.90;;;;;;8396474;28;20044;-57
2021/03/10 11:38:26;;;;;;;7.10;3.20;;;17.60;29.90;;;;;;8392428;28;20516;-57
2021/03/10 11:42:27;;;;;;;4.80;3.30;;;17.50;29.80;;;;;;8406234;28;20043;-57
2021/03/10 11:46:27;;;;;;;4.33;3.13;;;17.60;29.90;;;;;;8422495;28;20044;-58
2021/03/10 11:50:28;;;;;;;4.37;3.27;;;17.60;29.80;;;;;;8396165;28;20021;-57
2021/03/10 11:54:28;;;;;;;5.83;3.00;;;17.60;29.80;;;;;;8393215;28;20314;-58
2021/03/10 11:58:29;;;;;;;3.73;2.77;;;17.60;29.80;;;;;;8393015;28;20040;-57
2021/03/10 12:02:30;;;;;;;4.80;3.07;;;17.60;29.80;;;;;;8398528;28;20067;-57
2021/03/10 12:06:30;;;;;;;4.33;2.90;;;17.60;29.80;;;;;;8430480;28;20127;-57
2021/03/10 12:10:37;;;;;;;3.67;2.77;;;17.60;29.80;;;;;;8395063;28;20040;-58
2021/03/10 12:14:38;;;;;;;4.50;2.92;;;17.60;29.80;;;;;;8391258;28;20052;-57
2021/03/10 12:18:38;;;;;;;4.43;3.03;;;17.60;29.80;;;;;;8392108;28;20039;-58
2021/03/10 12:22:40;;;;;;;3.40;2.80;;;17.60;29.80;;;;;;8389409;28;20280;-54
2021/03/10 12:26:40;;;;;;;3.38;2.72;;;17.60;29.70;;;;;;8397151;28;20024;-57
2021/03/10 12:30:41;;;;;;;3.93;2.53;;;17.60;29.80;;;;;;8391758;28;20108;-58
2021/03/10 12:34:42;;;;;;;3.50;2.63;;;17.70;29.80;;;;;;8405099;28;20036;-57
2021/03/10 12:38:42;;;;;;;3.07;2.37;;;17.60;29.80;;;;;;8418814;28;20036;-57
2021/03/10 12:42:42;;;;;;;3.20;2.53;;;17.70;29.80;;;;;;8396171;28;20064;-57
2021/03/10 12:46:43;;;;;;;4.53;2.90;;;17.70;29.80;;;;;;8418330;28;20493;-57
2021/03/10 12:50:44;;;;;;;3.87;2.43;;;17.70;29.80;;;;;;8405210;28;20035;-57
2021/03/10 12:54:44;;;;;;;3.17;2.33;;;17.70;29.80;;;;;;8391407;28;20563;-57
2021/03/10 12:58:45;;;;;;;3.97;3.00;;;17.70;29.80;;;;;;8394175;28;20040;-55
2021/03/10 13:02:48;;;;;;;3.60;2.70;;;17.70;29.80;;;;;;8391115;28;20405;-56
2021/03/10 13:06:49;;;;;;;3.25;2.47;;;17.70;29.80;;;;;;8390820;28;20041;-56
2021/03/10 13:10:49;;;;;;;2.70;2.30;;;17.70;29.80;;;;;;8389439;28;20040;-56
2021/03/10 13:14:50;;;;;;;3.50;2.40;;;17.70;29.70;;;;;;8390913;28;20044;-56
2021/03/10 13:18:51;;;;;;;3.47;2.33;;;17.70;29.80;;;;;;8395577;28;20056;-56
2021/03/10 13:22:52;;;;;;;2.90;2.33;;;17.70;29.80;;;;;;8389076;28;20510;-56
2021/03/10 13:26:52;;;;;;;2.60;2.33;;;17.70;29.80;;;;;;8390696;28;20127;-56
2021/03/10 13:30:53;;;;;;;3.03;2.53;;;17.70;29.80;;;;;;8396520;28;20020;-56
2021/03/10 13:34:54;;;;;;;4.63;2.83;;;17.70;29.80;;;;;;8431954;28;20036;-56
2021/03/10 13:38:54;;;;;;;2.93;2.10;;;17.70;29.70;;;;;;8400025;28;20028;-56
2021/03/10 13:42:55;;;;;;;3.20;2.50;;;17.70;29.80;;;;;;8396988;28;20067;-56
2021/03/10 13:46:55;;;;;;;4.30;2.67;;;17.70;29.80;;;;;;8395359;28;20021;-56
2021/03/10 13:50:56;;;;;;;3.37;2.27;;;17.70;29.80;;;;;;8397453;28;20527;-56
2021/03/10 13:54:56;;;;;;;2.90;2.30;;;17.70;29.80;;;;;;8435099;28;20089;-56
2021/03/10 13:58:57;;;;;;;3.27;2.87;;;17.70;29.80;;;;;;8404119;28;20488;-56
2021/03/10 14:02:59;;;;;;;4.33;2.70;;;17.60;29.70;;;;;;8396500;28;20039;-57
2021/03/10 14:07:01;;;;;;;2.97;2.17;;;17.60;29.70;;;;;;8396290;28;20163;-57
2021/03/10 14:11:02;;;;;;;3.30;2.17;;;17.70;29.80;;;;;;8399327;28;20040;-56
2021/03/10 14:15:04;;;;;;;3.50;2.63;;;17.70;29.70;;;;;;8396289;28;20037;-57
2021/03/10 14:19:04;;;;;;;3.13;2.35;;;17.70;29.70;;;;;;8395863;28;20051;-56
2021/03/10 14:23:05;;;;;;;3.47;2.40;;;17.70;29.70;;;;;;8394314;28;20359;-56
2021/03/10 14:27:05;;;;;;;3.97;2.20;;;17.70;29.70;;;;;;8400732;28;20033;-56
2021/03/10 14:31:06;;;;;;;2.33;2.13;;;17.70;29.70;;;;;;8395363;28;20071;-56
2021/03/10 14:35:13;;;;;;;3.17;2.47;;;17.70;29.70;;;;;;8389628;28;20086;-55
2021/03/10 14:39:15;;;;;;;4.25;2.50;;;17.70;29.70;;;;;;8396017;28;20498;-56
2021/03/10 14:43:16;;;;;;;2.67;2.38;;;17.70;29.70;;;;;;8395125;28;20044;-57
2021/03/10 14:47:16;;;;;;;3.13;2.27;;;17.70;29.70;;;;;;8381461;28;20056;-56
2021/03/10 14:51:17;;;;;;;3.30;2.33;;;17.70;29.70;;;;;;8393131;28;20044;-58
2021/03/10 14:55:18;;;;;;;3.00;2.30;;;17.70;29.70;;;;;;8387465;28;20029;-58
2021/03/10 14:59:19;;;;;;;;;;;17.70;29.70;;;;;;8393897;28;20037;-57
2021/03/10 15:03:19;;;;;;;3.33;2.33;;;17.60;29.70;;;;;;8397717;28;19957;-56
2021/03/10 15:07:20;;;;;;;2.97;2.30;;;17.60;29.70;;;;;;8383252;28;20390;-55
2021/03/10 15:11:20;;;;;;;2.57;2.07;;;17.70;29.70;;;;;;8400783;28;20066;-53
2021/03/10 15:15:21;;;;;;;3.20;2.30;;;17.70;29.70;;;;;;8416632;28;20481;-54
2021/03/10 15:19:22;;;;;;;2.97;2.67;;;17.70;29.70;;;;;;8394429;28;20094;-55
2021/03/10 15:23:22;;;;;;;2.77;2.37;;;17.70;29.70;;;;;;8406664;28;20047;-55
2021/03/10 15:27:23;;;;;;;3.33;2.20;;;17.70;29.70;;;;;;8385546;28;20037;-50
2021/03/10 15:31:23;;;;;;;3.43;2.10;;;17.70;29.70;;;;;;8393789;28;20052;-54
2021/03/10 15:35:24;;;;;;;3.30;2.47;;;17.70;29.70;;;;;;8391738;28;20067;-54
2021/03/10 15:39:24;;;;;;;3.90;2.47;;;17.70;29.70;;;;;;8397920;28;20028;-53
2021/03/10 15:43:25;;;;;;;4.03;2.93;;;17.70;29.60;;;;;;8393105;28;20033;-53
2021/03/10 15:47:26;;;;;;;2.90;2.20;;;17.70;29.60;;;;;;8391685;28;20078;-55
2021/03/10 15:51:26;;;;;;;3.55;2.40;;;17.60;29.50;;;;;;8392513;28;20044;-55
2021/03/10 15:55:27;;;;;;;4.07;2.47;;;17.60;29.60;;;;;;8397678;28;20116;-55
2021/03/10 15:59:28;;;;;;;2.87;2.00;;;17.60;29.50;;;;;;8387057;28;20036;-53
2021/03/10 16:03:28;;;;;;;3.20;2.70;;;17.60;29.60;;;;;;8414004;28;20044;-55
2021/03/10 16:07:29;;;;;;;3.57;2.50;;;17.60;29.60;;;;;;8425020;28;20516;-54
2021/03/10 16:11:29;;;;;;;2.90;2.00;;;17.60;29.60;;;;;;8422253;28;20048;-55
2021/03/10 16:15:30;;;;;;;3.27;2.37;;;17.60;29.60;;;;;;8384368;28;20544;-55
2021/03/10 16:19:32;;;;;;;4.33;2.70;;;17.60;29.60;;;;;;8384767;28;20033;-53
2021/03/10 16:23:32;;;;;;;2.78;2.22;;;17.60;29.60;;;;;;8390242;28;20390;-54
2021/03/10 16:27:33;;;;;;;4.20;2.57;;;17.60;29.60;;;;;;8397445;28;20032;-54
2021/03/10 16:31:34;;;;;;;3.67;2.77;;;17.60;29.60;;;;;;8419904;28;20049;-57
2021/03/10 16:35:34;;;;;;;3.03;2.30;;;17.60;29.60;;;;;;8386300;28;20032;-54
2021/03/10 16:39:35;;;;;;;2.73;2.40;;;17.60;29.60;;;;;;8387373;28;20056;-56
2021/03/10 16:43:35;;;;;;;3.03;2.43;;;17.60;29.60;;;;;;8391464;28;20496;-53
2021/03/10 16:47:36;;;;;;;3.93;2.57;;;17.60;29.60;;;;;;8394033;28;20039;-56
2021/03/10 16:51:37;;;;;;;3.53;2.23;;;17.60;29.60;;;;;;8361229;28;20053;-56
2021/03/10 16:55:37;;;;;;;3.47;2.30;;;17.50;29.70;;;;;;8381135;28;20021;-57
2021/03/10 16:59:38;;;;;;;3.37;2.40;;;17.60;29.70;;;;;;8389531;28;20056;-54
2021/03/10 17:03:39;;;;;;;2.67;2.17;;;17.50;29.70;;;;;;8391054;28;20412;-56
2021/03/10 17:07:39;;;;;;;2.43;2.10;;;17.50;29.70;;;;;;8371073;28;20044;-55
2021/03/10 17:11:40;;;;;;;2.50;1.90;;;17.60;29.80;;;;;;8384805;28;20048;-56
2021/03/10 17:15:40;;;;;;;4.63;2.80;;;17.50;29.70;;;;;;8390817;28;20036;-56
2021/03/10 17:19:41;;;;;;;2.70;2.03;;;17.50;29.70;;;;;;8389716;28;20028;-56
2021/03/10 17:23:41;;;;;;;4.17;2.57;;;17.50;29.80;;;;;;8381140;28;20025;-55
2021/03/10 17:27:42;;;;;;;3.63;2.50;;;17.50;29.80;;;;;;8388632;28;20076;-56
2021/03/10 17:31:43;;;;;;;3.63;2.67;;;17.50;29.80;;;;;;8408460;28;20185;-57
2021/03/10 17:35:43;;;;;;;3.40;2.40;;;17.50;29.70;;;;;;8391189;28;20055;-55
2021/03/10 17:39:44;;;;;;;3.83;2.53;;;17.60;29.80;;;;;;8386287;28;20565;-56
2021/03/10 17:43:45;;;;;;;4.20;2.40;;;17.60;29.80;;;;;;8360080;28;20056;-57
2021/03/10 17:47:46;;;;;;;2.77;2.50;;;17.60;29.70;;;;;;8381014;28;20043;-56
2021/03/10 17:51:46;;;;;;;3.60;2.30;;;17.60;29.70;;;;;;8390298;28;20055;-56
2021/03/10 17:55:47;;;;;;;3.47;2.37;;;17.70;29.80;;;;;;8388780;28;20032;-56
2021/03/10 17:59:48;;;;;;;3.53;2.80;;;17.70;29.70;;;;;;8363540;28;20028;-56
2021/03/10 18:03:48;;;;;;;3.53;2.47;;;17.70;29.70;;;;;;8384754;28;20071;-57
2021/03/10 18:07:49;;;;;;;2.47;2.13;;;17.70;29.70;;;;;;8388796;28;20029;-57
2021/03/10 18:11:50;;;;;;;3.63;2.35;;;17.70;29.70;;;;;;8389918;28;20045;-57
2021/03/10 18:15:51;;;;;;;4.87;2.57;;;17.70;30.00;;;;;;8394740;28;20127;-57
2021/03/10 18:19:52;;;;;;;5.13;2.50;;;17.70;29.70;;;;;;8389605;28;20385;-57
2021/03/10 18:23:52;;;;;;;3.30;2.50;;;17.70;29.70;;;;;;8395902;28;20034;-57
2021/03/10 18:27:53;;;;;;;3.10;2.33;;;17.70;29.70;;;;;;8395868;28;20359;-57
2021/03/10 18:31:53;;;;;;;5.10;3.03;;;17.70;29.70;;;;;;8395076;28;20044;-57
2021/03/10 18:35:54;;;;;;;4.40;2.67;;;17.70;29.70;;;;;;8433775;28;20041;-58
2021/03/10 18:39:55;;;;;;;3.73;2.57;;;17.70;29.70;;;;;;8428284;27;20059;-58
2021/03/10 18:43:55;;;;;;;4.13;2.83;;;17.70;29.70;;;;;;8411392;28;20043;-57
2021/03/10 18:47:56;;;;;;;4.77;3.23;;;17.70;29.80;;;;;;8395629;28;20099;-57
2021/03/10 18:51:56;;;;;;;4.40;3.17;;;17.70;29.80;;;;;;8399501;28;20048;-57
2021/03/10 18:55:57;;;;;;;4.57;3.40;;;17.60;29.70;;;;;;8393341;28;20041;-57
2021/03/10 18:59:57;;;;;;;3.10;2.60;;;17.60;29.70;;;;;;8394692;28;20074;-57
2021/03/10 19:03:58;;;;;;;5.03;2.97;;;17.60;29.80;;;;;;8394605;28;20024;-57
2021/03/10 19:08:01;;;;;;;3.90;2.67;;;17.60;29.80;;;;;;8397539;28;20036;-57
2021/03/10 19:12:03;;;;;;;5.55;3.08;;;17.60;29.80;;;;;;8394370;28;20052;-58
2021/03/10 19:16:04;;;;;;;4.75;2.83;;;17.60;29.80;;;;;;8394575;28;20070;-57
2021/03/10 19:20:17;;;;;;;4.25;3.10;;;17.60;29.80;;;;;;8392571;28;20119;-57
2021/03/10 19:24:17;;;;;;;4.25;3.00;;;17.60;29.80;;;;;;8398585;28;20142;-57
2021/03/10 19:28:18;;;;;;;4.93;3.43;;;17.60;29.80;;;;;;8432210;28;20036;-57
2021/03/10 19:32:19;;;;;;;4.60;3.00;;;17.60;29.80;;;;;;8396813;28;20078;-57
2021/03/10 19:36:19;;;;;;;5.10;3.47;;;17.60;29.80;;;;;;8393653;28;20263;-57
2021/03/10 19:40:22;;;;;;;5.23;3.27;;;17.60;29.80;;;;;;8401801;28;20078;-57
2021/03/10 19:44:23;;;;;;;5.75;3.17;;;17.60;29.80;;;;;;8429981;28;20396;-57
2021/03/10 19:48:23;;;;;;;4.60;3.47;;;17.50;29.80;;;;;;8394098;28;20083;-57
2021/03/10 19:52:24;;;;;;;3.93;2.87;;;17.50;29.70;;;;;;8392944;28;20048;-58
2021/03/10 19:56:25;;;;;;;4.20;3.27;;;17.50;29.80;;;;;;8392002;28;20434;-57
2021/03/10 20:00:25;;;;;;;4.30;3.23;;;17.50;29.80;;;;;;8392738;28;20047;-57
2021/03/10 20:04:26;;;;;;;5.10;3.27;;;17.50;29.80;;;;;;8397344;28;20028;-57
2021/03/10 20:08:26;;;;;;;4.20;3.20;;;17.50;29.80;;;;;;8406577;28;20048;-58
2021/03/10 20:12:29;;;;;;;5.73;3.47;;;17.50;29.80;;;;;;8392598;28;20131;-58
2021/03/10 20:16:30;;;;;;;4.10;2.95;;;17.50;29.80;;;;;;8392439;28;20047;-57
2021/03/10 20:20:30;;;;;;;4.03;3.00;;;17.50;29.90;;;;;;8395255;28;20032;-58
2021/03/10 20:24:31;;;;;;;5.20;3.70;;;17.50;29.90;;;;;;8392083;28;20115;-57
2021/03/10 20:28:32;;;;;;;4.30;3.53;;;17.50;29.90;;;;;;8392125;28;20056;-57
2021/03/10 20:32:33;;;;;;;3.50;2.80;;;17.50;29.90;;;;;;8390583;28;20041;-58
2021/03/10 20:36:33;;;;;;;5.27;3.57;;;17.50;29.90;;;;;;8392944;28;20062;-58
2021/03/10 20:40:34;;;;;;;4.47;3.30;;;17.40;29.90;;;;;;8395110;28;20117;-57
2021/03/10 20:44:35;;;;;;;4.33;3.03;;;17.40;29.90;;;;;;8389329;28;20032;-57
2021/03/10 20:48:35;;;;;;;5.27;3.57;;;17.40;29.90;;;;;;8391300;28;20028;-57
2021/03/10 20:52:36;;;;;;;4.67;4.17;;;17.40;29.90;;;;;;8391267;28;20459;-57
2021/03/10 20:56:36;;;;;;;5.27;3.33;;;17.40;29.90;;;;;;8394182;28;20017;-57
2021/03/10 21:00:37;;;;;;;5.07;3.33;;;17.40;29.90;;;;;;8418553;28;20064;-57